Time;durP1;ratioP1;P1;durP2;ratioP2;P2;SDS_P1;SDS_P2;PMS_P1;PMS_P2;Temp;Humidity;BMP_temperature;BMP_pressure;BME280_temperature;BME280_humidity;BME280_pressure;Samples;Min_cycle;Max_cycle;Signal;HPM_P1;HPM_P2
2022/06/14 00:05:57;;;;;;;6.43;1.30;;;13.80;99.90;;;;;;6763245;88;20367;-77
2022/06/14 00:15:57;;;;;;;4.72;1.45;;;13.80;99.90;;;;;;6754204;88;20187;-77
2022/06/14 00:25:59;;;;;;;4.85;1.50;;;13.80;99.90;;;;;;6753168;88;20643;-78
2022/06/14 00:36:03;;;;;;;5.70;1.58;;;13.80;99.90;;;;;;6752107;88;20358;-78
2022/06/14 00:46:18;;;;;;;4.93;1.23;;;13.70;99.90;;;;;;6751694;88;20215;-76
2022/06/14 00:56:31;;;;;;;4.47;1.30;;;13.80;99.90;;;;;;6717449;88;20235;-76
2022/06/14 01:06:43;;;;;;;8.60;1.60;;;13.70;99.90;;;;;;6720915;88;20260;-76
2022/06/14 01:16:44;;;;;;;6.25;1.55;;;14.00;99.90;;;;;;6717697;88;20248;-77
2022/06/14 01:26:45;;;;;;;7.70;1.55;;;13.80;99.90;;;;;;6722354;88;20199;-76
2022/06/14 01:36:45;;;;;;;7.47;1.42;;;13.50;99.90;;;;;;6734566;88;20204;-76
2022/06/14 01:46:58;;;;;;;3.58;1.25;;;13.40;99.90;;;;;;6724685;88;20713;-78
2022/06/14 01:57:07;;;;;;;5.25;1.50;;;13.10;99.90;;;;;;6716986;88;20286;-78
2022/06/14 02:07:24;;;;;;;7.22;1.87;;;12.80;99.90;;;;;;6717135;88;20212;-76
2022/06/14 02:17:46;;;;;;;4.93;1.40;;;12.90;99.90;;;;;;6717475;88;20165;-77
2022/06/14 02:27:50;;;;;;;4.90;1.48;;;12.70;99.90;;;;;;6721846;88;20180;-77
2022/06/14 02:38:03;;;;;;;5.40;1.37;;;12.60;99.90;;;;;;6732972;88;20623;-77
2022/06/14 02:48:18;;;;;;;5.53;1.52;;;12.60;99.90;;;;;;6732021;88;20177;-78
2022/06/14 02:58:39;;;;;;;5.87;1.60;;;12.60;99.90;;;;;;6733587;88;20203;-77
2022/06/14 03:09:06;;;;;;;6.45;1.60;;;12.60;99.90;;;;;;6734036;88;20221;-78
2022/06/14 03:19:19;;;;;;;4.90;1.52;;;12.10;99.90;;;;;;6712797;88;20612;-77
2022/06/14 03:29:49;;;;;;;5.75;1.70;;;11.80;99.90;;;;;;6725561;88;20189;-77
2022/06/14 03:39:58;;;;;;;5.22;1.60;;;11.70;99.90;;;;;;6718311;88;20193;-78
2022/06/14 03:50:25;;;;;;;5.87;1.48;;;11.50;99.90;;;;;;6727618;88;20711;-79
2022/06/14 04:01:11;;;;;;;6.65;1.70;;;11.30;99.90;;;;;;6723898;88;20202;-77
2022/06/14 04:11:25;;;;;;;5.97;2.15;;;11.30;99.90;;;;;;6676146;88;20962;-78
2022/06/14 04:21:34;;;;;;;5.82;1.73;;;11.40;99.90;;;;;;6719117;88;20219;-77
2022/06/14 04:31:44;;;;;;;6.47;1.67;;;11.20;99.90;;;;;;6719298;88;20701;-77
2022/06/14 04:41:56;;;;;;;7.45;1.75;;;11.30;99.90;;;;;;6718269;88;20182;-77
2022/06/14 04:52:07;;;;;;;10.02;1.85;;;11.50;99.90;;;;;;6715257;88;20201;-77
2022/06/14 05:02:15;;;;;;;7.28;1.75;;;11.50;99.90;;;;;;6719329;88;20182;-80
2022/06/14 05:12:25;;;;;;;6.35;1.90;;;12.00;99.90;;;;;;6722749;88;20288;-76
2022/06/14 05:22:31;;;;;;;8.13;1.92;;;12.20;99.90;;;;;;6719039;88;20220;-76
2022/06/14 05:32:43;;;;;;;8.45;2.05;;;12.40;99.90;;;;;;6718832;88;20929;-77
2022/06/14 05:42:55;;;;;;;8.80;1.75;;;12.30;99.90;;;;;;6722996;88;20208;-78
2022/06/14 05:53:04;;;;;;;8.18;2.33;;;12.30;99.90;;;;;;6737908;88;20184;-77
2022/06/14 06:13:13;;;;;;;6.78;2.25;;;13.30;99.90;;;;;;6719800;88;20205;-80
2022/06/14 06:23:32;;;;;;;;;;;14.50;99.90;;;;;;6730840;88;20178;-80
2022/06/14 06:33:36;;;;;;;9.32;3.08;;;15.10;99.90;;;;;;6719263;88;20105;-80
2022/06/14 06:43:39;;;;;;;7.15;3.00;;;15.50;99.90;;;;;;6723834;88;20264;-80
2022/06/14 06:53:45;;;;;;;12.77;3.22;;;15.90;99.90;;;;;;6731357;88;20255;-80
2022/06/14 07:03:52;;;;;;;10.13;3.00;;;16.40;99.90;;;;;;6727537;88;20684;-80
2022/06/14 07:13:56;;;;;;;10.20;4.28;;;17.60;99.90;;;;;;6729498;88;20595;-81
2022/06/14 07:24:03;;;;;;;9.85;3.00;;;18.90;99.90;;;;;;6743253;88;20192;-80
2022/06/14 07:34:06;;;;;;;9.57;2.70;;;19.00;99.90;;;;;;6739603;88;20193;-80
2022/06/14 07:44:30;;;;;;;14.90;3.40;;;20.10;99.90;;;;;;6733112;88;20884;-80
2022/06/14 07:54:37;;;;;;;7.87;2.67;;;20.20;99.90;;;;;;6731911;88;20203;-81
2022/06/14 08:04:43;;;;;;;8.55;2.80;;;20.50;99.90;;;;;;6729037;88;20213;-80
2022/06/14 08:15:03;;;;;;;10.88;3.10;;;21.10;98.60;;;;;;6717060;88;20199;-80
2022/06/14 08:25:13;;;;;;;8.43;3.08;;;21.60;97.80;;;;;;6718755;88;20212;-81
2022/06/14 08:35:38;;;;;;;11.15;2.50;;;21.90;97.30;;;;;;6723494;88;20174;-81
2022/06/14 08:46:25;;;;;;;13.07;2.60;;;22.40;96.50;;;;;;6726265;88;20237;-81
2022/06/14 08:56:44;;;;;;;8.25;2.50;;;23.20;95.70;;;;;;6714127;88;20625;-80
2022/06/14 09:07:16;;;;;;;9.57;2.70;;;23.80;93.90;;;;;;6721068;88;20621;-79
2022/06/14 09:17:26;;;;;;;9.50;2.67;;;24.40;93.10;;;;;;6713445;88;20206;-80
2022/06/14 09:27:57;;;;;;;10.25;2.70;;;24.30;92.80;;;;;;6719194;88;20198;-80
2022/06/14 09:38:15;;;;;;;9.20;2.50;;;25.30;91.30;;;;;;6721911;88;20239;-79
2022/06/14 09:48:33;;;;;;;10.50;2.40;;;24.30;90.50;;;;;;6729879;88;20188;-79
2022/06/14 09:58:47;;;;;;;9.70;1.90;;;25.50;88.30;;;;;;6732029;88;20194;-79
2022/06/14 10:08:47;;;;;;;8.07;1.92;;;26.40;87.40;;;;;;6714928;88;20200;-79
2022/06/14 10:18:59;;;;;;;6.55;2.20;;;27.20;84.20;;;;;;6739255;88;20224;-79
2022/06/14 10:29:09;;;;;;;6.62;2.03;;;26.40;82.00;;;;;;6739797;88;20251;-79
2022/06/14 10:39:28;;;;;;;7.45;2.08;;;27.40;80.60;;;;;;6733524;88;20588;-80
2022/06/14 10:49:43;;;;;;;5.43;2.00;;;26.70;81.80;;;;;;6728455;88;20221;-80
2022/06/14 11:00:09;;;;;;;7.65;2.00;;;28.40;77.60;;;;;;6729910;88;20196;-81
2022/06/14 11:10:23;;;;;;;7.75;2.35;;;29.00;75.70;;;;;;6732185;88;20182;-80
2022/06/14 11:20:41;;;;;;;7.55;2.58;;;28.60;73.50;;;;;;6732087;88;20232;-81
2022/06/14 11:31:05;;;;;;;6.60;3.22;;;29.60;70.50;;;;;;6740338;88;20278;-81
2022/06/14 11:41:08;;;;;;;3.97;1.62;;;29.00;70.50;;;;;;6730232;88;20193;-82
2022/06/14 11:51:29;;;;;;;5.85;1.90;;;29.70;69.60;;;;;;6730405;88;20741;-81
2022/06/14 12:01:50;;;;;;;4.83;2.40;;;30.00;68.50;;;;;;6730204;88;20201;-81
2022/06/14 12:12:05;;;;;;;6.50;2.20;;;31.10;66.60;;;;;;6711942;88;20210;-76
2022/06/14 12:22:34;;;;;;;6.05;2.20;;;30.70;64.90;;;;;;6691729;88;20234;-76
2022/06/14 12:32:44;;;;;;;7.75;2.00;;;30.50;65.00;;;;;;6704543;88;20202;-76
2022/06/14 12:43:04;;;;;;;5.28;1.83;;;30.50;62.50;;;;;;6696749;88;20305;-77
2022/06/14 12:53:16;;;;;;;4.70;1.70;;;30.40;63.10;;;;;;6689360;88;20206;-77
2022/06/14 13:03:27;;;;;;;6.82;1.70;;;31.00;61.70;;;;;;6695441;88;20353;-77
2022/06/14 13:13:47;;;;;;;5.47;1.63;;;31.10;59.30;;;;;;6702379;88;20198;-77
2022/06/14 13:24:30;;;;;;;4.30;1.70;;;31.10;58.60;;;;;;6706963;88;20185;-77
2022/06/14 13:34:45;;;;;;;6.05;1.75;;;30.50;57.40;;;;;;6716223;88;20226;-78
2022/06/14 13:44:56;;;;;;;6.25;1.45;;;29.90;56.10;;;;;;6716060;88;20693;-77
2022/06/14 13:55:11;;;;;;;7.10;1.60;;;30.70;56.90;;;;;;6719040;88;20231;-78
2022/06/14 14:05:36;;;;;;;4.57;1.80;;;31.10;56.80;;;;;;6711752;88;20207;-77
2022/06/14 14:15:46;;;;;;;4.95;1.60;;;31.30;56.10;;;;;;6719231;88;20205;-77
2022/06/14 14:26:07;;;;;;;6.05;1.77;;;31.40;57.50;;;;;;6713136;88;20739;-78
2022/06/14 14:36:33;;;;;;;6.13;1.90;;;31.50;57.00;;;;;;6713231;88;20237;-77
2022/06/14 14:46:37;;;;;;;4.97;1.70;;;31.40;57.30;;;;;;6715267;88;20306;-77
2022/06/14 14:56:45;;;;;;;5.15;1.60;;;31.10;57.50;;;;;;6717415;88;20199;-77
2022/06/14 15:06:49;;;;;;;3.42;1.48;;;31.00;56.40;;;;;;6709412;88;20608;-77
2022/06/14 15:27:28;;;;;;;5.78;1.58;;;30.80;58.20;;;;;;6715319;88;20318;-77
2022/06/14 15:37:40;;;;;;;5.93;2.00;;;30.70;57.60;;;;;;6712340;88;20288;-78
2022/06/14 15:47:41;;;;;;;6.10;1.40;;;30.20;58.00;;;;;;6723090;88;20308;-77
2022/06/14 15:58:32;;;;;;;6.85;2.10;;;30.00;58.50;;;;;;6722547;88;20286;-78
2022/06/14 16:08:37;;;;;;;6.40;1.40;;;29.80;58.40;;;;;;6711369;88;20190;-77
2022/06/14 16:18:41;;;;;;;4.53;1.50;;;30.80;58.30;;;;;;6721749;88;20202;-77
2022/06/14 16:29:07;;;;;;;4.07;1.45;;;30.30;57.90;;;;;;6717326;88;20315;-77
2022/06/14 16:39:22;;;;;;;4.35;1.60;;;29.20;59.80;;;;;;6713669;88;20682;-78
2022/06/14 16:50:14;;;;;;;4.95;1.37;;;28.30;59.90;;;;;;6718350;88;20181;-78
2022/06/14 17:00:39;;;;;;;4.80;1.45;;;28.20;60.10;;;;;;6703943;88;20307;-79
2022/06/14 17:10:52;;;;;;;3.92;1.50;;;28.40;59.90;;;;;;6711194;88;20177;-78
2022/06/14 17:21:00;;;;;;;5.10;1.50;;;28.10;61.70;;;;;;6716340;88;20200;-77
2022/06/14 17:31:11;;;;;;;3.33;1.20;;;28.60;59.50;;;;;;6711561;88;20299;-77
2022/06/14 17:41:27;;;;;;;4.85;1.12;;;27.90;58.50;;;;;;6712635;88;20398;-78
2022/06/14 17:51:43;;;;;;;4.25;1.37;;;28.30;59.20;;;;;;6714461;88;20248;-78
2022/06/14 18:02:01;;;;;;;4.12;1.10;;;29.10;57.80;;;;;;6708601;88;20215;-78
2022/06/14 18:12:02;;;;;;;4.95;1.50;;;26.90;60.70;;;;;;6712575;88;20200;-77
2022/06/14 18:22:04;;;;;;;4.78;1.15;;;27.90;60.00;;;;;;6710126;88;20198;-77
2022/06/14 18:32:09;;;;;;;2.75;1.00;;;28.00;58.60;;;;;;6709678;88;20232;-77
2022/06/14 18:42:21;;;;;;;3.30;1.17;;;26.50;60.70;;;;;;6707645;88;20883;-77
2022/06/14 18:52:26;;;;;;;3.15;1.20;;;25.50;61.20;;;;;;6702817;88;20232;-77
2022/06/14 19:02:37;;;;;;;6.62;1.50;;;25.10;62.20;;;;;;6710561;88;20253;-77
2022/06/14 19:13:00;;;;;;;3.45;1.40;;;24.80;62.60;;;;;;6708594;88;20224;-76
2022/06/14 19:23:28;;;;;;;2.40;0.90;;;24.50;63.10;;;;;;6708416;88;20190;-76
2022/06/14 19:33:51;;;;;;;3.42;1.20;;;24.00;64.50;;;;;;6714259;88;20614;-76
2022/06/14 19:43:56;;;;;;;2.87;1.60;;;23.50;67.70;;;;;;6714341;88;20228;-76
2022/06/14 19:54:00;;;;;;;4.03;1.60;;;23.10;69.80;;;;;;6723432;88;20194;-78
2022/06/14 20:04:15;;;;;;;5.83;1.70;;;22.70;70.30;;;;;;6722808;88;20638;-77
2022/06/14 20:14:19;;;;;;;4.30;1.70;;;22.40;72.30;;;;;;6716859;88;20175;-77
2022/06/14 20:24:20;;;;;;;5.32;1.67;;;21.90;72.80;;;;;;6720015;88;20216;-76
2022/06/14 20:34:21;;;;;;;4.78;2.03;;;21.60;74.00;;;;;;6714517;88;20194;-76
2022/06/14 20:44:22;;;;;;;6.10;1.87;;;21.30;76.30;;;;;;6722472;88;20370;-77
2022/06/14 20:54:23;;;;;;;4.90;1.77;;;21.20;76.70;;;;;;6722462;88;20340;-77
2022/06/14 21:04:24;;;;;;;9.97;2.23;;;20.80;77.70;;;;;;6720911;88;20632;-78
2022/06/14 21:14:25;;;;;;;7.95;2.20;;;20.70;78.80;;;;;;6720418;88;21043;-77
2022/06/14 21:24:35;;;;;;;7.07;2.08;;;20.40;80.40;;;;;;6722214;88;20230;-77
2022/06/14 21:34:55;;;;;;;5.05;2.30;;;19.90;83.40;;;;;;6710240;88;20324;-78
2022/06/14 21:44:59;;;;;;;5.22;2.00;;;19.70;85.50;;;;;;6715008;88;20205;-78
2022/06/14 21:55:08;;;;;;;4.50;2.00;;;19.50;87.80;;;;;;6722844;88;20726;-79
2022/06/14 22:05:09;;;;;;;4.85;2.28;;;19.30;90.30;;;;;;6719498;88;20197;-79
2022/06/14 22:15:13;;;;;;;6.80;2.30;;;19.20;91.60;;;;;;6724690;88;20215;-79
2022/06/14 22:25:13;;;;;;;7.62;2.33;;;18.80;92.90;;;;;;6723460;88;20211;-79
2022/06/14 22:35:19;;;;;;;8.23;2.70;;;18.20;95.20;;;;;;6718390;88;21070;-79
2022/06/14 22:45:22;;;;;;;6.10;2.78;;;17.90;97.70;;;;;;6718089;88;20742;-77
2022/06/14 22:55:25;;;;;;;4.45;2.83;;;17.70;99.90;;;;;;6718178;88;20182;-77
2022/06/14 23:05:26;;;;;;;5.40;3.35;;;17.40;99.90;;;;;;6718648;88;20209;-78
2022/06/14 23:15:27;;;;;;;6.03;3.28;;;17.20;99.90;;;;;;6725070;88;20178;-78
2022/06/14 23:25:27;;;;;;;6.87;3.10;;;17.10;99.90;;;;;;6716677;88;20676;-78
2022/06/14 23:35:28;;;;;;;6.45;3.33;;;17.20;99.90;;;;;;6717308;88;20203;-78
2022/06/14 23:45:29;;;;;;;5.47;3.00;;;17.50;99.90;;;;;;6714149;88;20198;-78
2022/06/14 23:55:29;;;;;;;6.60;3.10;;;17.40;99.90;;;;;;6720147;88;20219;-78
